createdAt,value
2016-09-09T00:00:15.564Z,0
2016-09-09T00:01:15.570Z,0
2016-09-09T00:02:15.526Z,0
2016-09-09T00:03:15.572Z,0
2016-09-09T00:04:15.529Z,0
2016-09-09T00:05:15.535Z,0
2016-09-09T00:06:15.522Z,0
2016-09-09T00:07:15.539Z,0
2016-09-09T00:08:15.512Z,0
2016-09-09T00:09:15.522Z,0
2016-09-09T00:10:15.522Z,0
2016-09-09T00:11:15.532Z,0
2016-09-09T00:12:15.491Z,0
2016-09-09T00:13:15.494Z,0
2016-09-09T00:14:15.491Z,0
2016-09-09T00:15:15.487Z,0
2016-09-09T00:16:15.792Z,0
2016-09-09T00:17:15.475Z,0
2016-09-09T00:18:15.784Z,0
2016-09-09T00:19:15.484Z,0
2016-09-09T00:20:15.499Z,0
2016-09-09T00:21:15.482Z,0
2016-09-09T00:22:15.464Z,0
2016-09-09T00:23:15.460Z,0
2016-09-09T00:24:15.456Z,0
2016-09-09T00:25:15.763Z,0
2016-09-09T00:26:15.452Z,0
2016-09-09T00:27:15.772Z,0
2016-09-09T00:28:15.446Z,0
2016-09-09T00:29:15.456Z,0
2016-09-09T00:30:15.448Z,0
2016-09-09T00:31:15.471Z,0
2016-09-09T00:32:15.424Z,0
2016-09-09T00:33:15.738Z,0
2016-09-09T00:34:15.425Z,0
2016-09-09T00:35:15.432Z,0
2016-09-09T00:36:15.722Z,0
2016-09-09T00:37:15.412Z,0
2016-09-09T00:38:15.408Z,0
2016-09-09T00:39:15.410Z,0
2016-09-09T00:40:15.383Z,0
2016-09-09T00:41:15.382Z,0
2016-09-09T00:42:15.375Z,0
2016-09-09T00:43:15.385Z,0
2016-09-09T00:44:15.403Z,0
2016-09-09T00:45:15.387Z,0
2016-09-09T00:46:15.370Z,0
2016-09-09T00:47:15.384Z,0
2016-09-09T00:48:15.385Z,0
2016-09-09T00:49:15.362Z,0
2016-09-09T00:50:15.374Z,0
2016-09-09T00:51:15.353Z,0
2016-09-09T00:52:15.394Z,0
2016-09-09T00:53:15.337Z,0
2016-09-09T00:54:15.346Z,0
2016-09-09T00:55:15.391Z,0
2016-09-09T00:56:15.316Z,0
2016-09-09T00:57:15.319Z,0
2016-09-09T00:58:15.346Z,0
2016-09-09T00:59:15.648Z,0
2016-09-09T01:00:15.316Z,0
2016-09-09T01:01:15.323Z,0
2016-09-09T01:02:15.322Z,0
2016-09-09T01:03:15.300Z,0
2016-09-09T01:04:15.303Z,0
2016-09-09T01:05:15.304Z,0
2016-09-09T01:06:15.302Z,0
2016-09-09T01:07:15.281Z,0
2016-09-09T01:08:15.274Z,0
2016-09-09T01:09:15.648Z,0
2016-09-09T01:10:15.344Z,0
2016-09-09T01:11:15.265Z,0
2016-09-09T01:12:15.262Z,0
2016-09-09T01:13:15.268Z,0
2016-09-09T01:14:15.583Z,0
2016-09-09T01:15:15.249Z,0
2016-09-09T01:16:15.485Z,0
2016-09-09T01:17:15.243Z,0
2016-09-09T01:18:15.263Z,0
2016-09-09T01:19:15.246Z,0
2016-09-09T01:20:15.232Z,0
2016-09-09T01:21:15.252Z,0
2016-09-09T01:22:15.231Z,0
2016-09-09T01:23:15.238Z,0
2016-09-09T01:24:15.214Z,0
2016-09-09T01:25:15.221Z,0
2016-09-09T01:26:15.528Z,0
2016-09-09T01:27:15.196Z,0
2016-09-09T01:28:15.194Z,0
2016-09-09T01:29:15.182Z,0
2016-09-09T01:30:15.194Z,0
2016-09-09T01:31:15.184Z,0
2016-09-09T01:32:15.200Z,0
2016-09-09T01:33:15.176Z,0
2016-09-09T01:34:15.180Z,0
2016-09-09T01:35:15.174Z,0
2016-09-09T01:36:15.168Z,0
2016-09-09T01:37:15.154Z,0
2016-09-09T01:38:15.159Z,0
2016-09-09T01:39:15.149Z,0
2016-09-09T01:40:15.168Z,0
2016-09-09T01:41:15.453Z,0
2016-09-09T01:42:15.146Z,0
2016-09-09T01:43:15.136Z,0
2016-09-09T01:44:15.158Z,0
2016-09-09T01:45:15.120Z,0
2016-09-09T01:46:15.136Z,0
2016-09-09T01:47:15.108Z,0
2016-09-09T01:48:15.127Z,0
2016-09-09T01:49:15.116Z,0
2016-09-09T01:50:15.129Z,0
2016-09-09T01:51:15.137Z,0
2016-09-09T01:52:15.106Z,0
2016-09-09T01:53:15.078Z,0
2016-09-09T01:54:15.083Z,0
2016-09-09T01:55:15.123Z,0
2016-09-09T01:56:15.070Z,0
2016-09-09T01:57:15.062Z,0
2016-09-09T01:58:15.061Z,0
2016-09-09T01:59:15.038Z,0
2016-09-09T02:00:15.050Z,0
2016-09-09T02:01:15.048Z,0
2016-09-09T02:02:15.030Z,0
2016-09-09T02:03:15.025Z,0
2016-09-09T02:04:15.024Z,0
2016-09-09T02:05:15.030Z,0
2016-09-09T02:06:15.025Z,0
2016-09-09T02:07:15.009Z,0
2016-09-09T02:08:15.017Z,0
2016-09-09T02:09:15.017Z,0
2016-09-09T02:10:15.014Z,0
2016-09-09T02:11:15.000Z,0
2016-09-09T02:12:14.986Z,0
2016-09-09T02:13:15.186Z,0
2016-09-09T02:14:14.989Z,0
2016-09-09T02:16:14.970Z,0
2016-09-09T02:17:14.978Z,0
2016-09-09T02:18:14.966Z,0
2016-09-09T02:19:14.957Z,0
2016-09-09T02:20:14.959Z,0
2016-09-09T02:21:14.964Z,0
2016-09-09T02:22:14.953Z,0
2016-09-09T02:23:14.947Z,0
2016-09-09T02:24:14.957Z,0
2016-09-09T02:25:15.256Z,0
2016-09-09T02:26:15.066Z,0
2016-09-09T02:27:14.926Z,0
2016-09-09T02:28:14.930Z,0
2016-09-09T02:29:14.949Z,0
2016-09-09T02:30:14.910Z,0
2016-09-09T02:31:14.908Z,0
2016-09-09T02:32:14.908Z,0
2016-09-09T02:33:14.899Z,0
2016-09-09T02:34:14.913Z,0
2016-09-09T02:35:15.295Z,0
2016-09-09T02:36:14.899Z,0
2016-09-09T02:37:14.891Z,0
2016-09-09T02:38:14.880Z,0
2016-09-09T02:39:14.873Z,0
2016-09-09T02:40:14.869Z,0
2016-09-09T02:41:14.876Z,0
2016-09-09T02:42:14.874Z,0
2016-09-09T02:43:14.851Z,0
2016-09-09T02:44:15.167Z,0
2016-09-09T02:45:15.159Z,0
2016-09-09T02:46:14.858Z,0
2016-09-09T02:47:14.838Z,0
2016-09-09T02:48:14.836Z,0
2016-09-09T02:49:14.843Z,0
2016-09-09T02:50:14.836Z,0
2016-09-09T02:51:14.829Z,0
2016-09-09T02:52:14.835Z,0
2016-09-09T02:53:14.920Z,0
2016-09-09T02:54:14.809Z,0
2016-09-09T02:55:15.121Z,0
2016-09-09T02:56:14.820Z,0
2016-09-09T02:57:14.807Z,0
2016-09-09T02:58:14.808Z,0
2016-09-09T02:59:14.815Z,0
2016-09-09T03:00:14.786Z,0
2016-09-09T03:01:14.777Z,0
2016-09-09T03:02:15.080Z,0
2016-09-09T03:03:14.777Z,0
2016-09-09T03:04:14.771Z,0
2016-09-09T03:05:14.768Z,0
2016-09-09T03:06:14.771Z,0
2016-09-09T03:07:14.777Z,0
2016-09-09T03:08:14.788Z,0
2016-09-09T03:09:14.787Z,0
2016-09-09T03:10:14.801Z,0
2016-09-09T03:11:14.802Z,0
2016-09-09T03:12:15.044Z,0
2016-09-09T03:13:15.040Z,0
2016-09-09T03:14:15.026Z,0
2016-09-09T03:15:14.754Z,0
2016-09-09T03:16:14.739Z,0
2016-09-09T03:17:14.761Z,0
2016-09-09T03:18:14.749Z,0
2016-09-09T03:19:14.756Z,0
2016-09-09T03:20:14.767Z,0
2016-09-09T03:21:14.774Z,0
2016-09-09T03:22:14.797Z,0
2016-09-09T03:23:14.734Z,0
2016-09-09T03:24:14.733Z,0
2016-09-09T03:25:14.703Z,0
2016-09-09T03:26:14.715Z,0
2016-09-09T03:27:14.719Z,0
2016-09-09T03:28:14.720Z,0
2016-09-09T03:29:14.762Z,0
2016-09-09T03:30:14.736Z,0
2016-09-09T03:31:14.705Z,0
2016-09-09T03:32:14.696Z,0
2016-09-09T03:33:14.700Z,0
2016-09-09T03:34:14.714Z,0
2016-09-09T03:35:14.711Z,0
2016-09-09T03:36:14.721Z,0
2016-09-09T03:37:14.691Z,0
2016-09-09T03:38:14.692Z,0
2016-09-09T03:39:14.700Z,0
2016-09-09T03:40:14.648Z,0
2016-09-09T03:41:14.666Z,0
2016-09-09T03:42:14.667Z,0
2016-09-09T03:43:14.666Z,0
2016-09-09T03:44:14.677Z,0
2016-09-09T03:45:14.686Z,0
2016-09-09T03:46:14.692Z,0
2016-09-09T03:47:14.709Z,0
2016-09-09T03:48:14.712Z,0
2016-09-09T03:49:14.719Z,0
2016-09-09T03:50:14.624Z,0
2016-09-09T03:51:14.862Z,0
2016-09-09T03:52:14.650Z,0
2016-09-09T03:53:14.636Z,0
2016-09-09T03:54:14.647Z,0
2016-09-09T03:55:14.658Z,0
2016-09-09T03:56:14.664Z,0
2016-09-09T03:57:14.673Z,0
2016-09-09T03:58:14.682Z,0
2016-09-09T03:59:14.806Z,0
2016-09-09T04:00:14.549Z,0
2016-09-09T04:01:14.561Z,0
2016-09-09T04:02:14.796Z,0
2016-09-09T04:03:14.617Z,0
2016-09-09T04:04:14.630Z,0
2016-09-09T04:05:14.634Z,0
2016-09-09T04:06:14.636Z,0
2016-09-09T04:07:14.653Z,0
2016-09-09T04:08:14.503Z,0
2016-09-09T04:09:14.512Z,0
2016-09-09T04:10:14.523Z,0
2016-09-09T04:11:14.537Z,0
2016-09-09T04:12:14.548Z,0
2016-09-09T04:13:14.550Z,0
2016-09-09T04:14:14.556Z,0
2016-09-09T04:15:14.783Z,0
2016-09-09T04:16:14.615Z,0
2016-09-09T04:17:14.724Z,0
2016-09-09T04:18:14.476Z,0
2016-09-09T04:19:14.717Z,0
2016-09-09T04:20:14.496Z,0
2016-09-09T04:21:14.709Z,0
2016-09-09T04:22:14.512Z,0
2016-09-09T04:23:14.520Z,0
2016-09-09T04:24:14.522Z,0
2016-09-09T04:25:14.532Z,0
2016-09-09T04:26:14.541Z,0
2016-09-09T04:27:14.454Z,0
2016-09-09T04:28:14.453Z,0
2016-09-09T04:29:14.457Z,0
2016-09-09T04:30:14.669Z,0
2016-09-09T04:31:14.473Z,0
2016-09-09T04:32:14.486Z,0
2016-09-09T04:33:14.484Z,0
2016-09-09T04:34:14.493Z,5
2016-09-09T04:35:14.501Z,5
2016-09-09T04:36:14.510Z,5
2016-09-09T04:37:14.732Z,5
2016-09-09T04:38:14.668Z,5
2016-09-09T04:39:14.527Z,5
2016-09-09T04:40:14.435Z,5
2016-09-09T04:41:29.177Z,5
2016-09-09T04:42:14.656Z,10
2016-09-09T04:43:14.452Z,10
2016-09-09T04:44:14.462Z,10
2016-09-09T04:45:14.471Z,10
2016-09-09T04:46:14.479Z,10
2016-09-09T04:47:14.319Z,15
2016-09-09T04:48:14.337Z,15
2016-09-09T04:49:14.637Z,15
2016-09-09T04:50:14.318Z,15
2016-09-09T04:51:14.453Z,20
2016-09-09T04:52:14.425Z,20
2016-09-09T04:53:14.424Z,20
2016-09-09T04:54:14.431Z,20
2016-09-09T04:55:14.442Z,25
2016-09-09T04:56:14.762Z,25
2016-09-09T04:57:14.275Z,25
2016-09-09T04:58:14.270Z,30
2016-09-09T04:59:14.608Z,30
2016-09-09T05:00:14.269Z,25
2016-09-09T05:01:14.260Z,25
2016-09-09T05:02:14.636Z,25
2016-09-09T05:03:14.255Z,25
2016-09-09T05:04:14.256Z,25
2016-09-09T05:05:14.385Z,25
2016-09-09T05:06:14.264Z,25
2016-09-09T05:07:14.271Z,25
2016-09-09T05:08:14.280Z,30
2016-09-09T05:09:14.241Z,30
2016-09-09T05:10:14.233Z,30
2016-09-09T05:11:14.249Z,30
2016-09-09T05:12:14.250Z,30
2016-09-09T05:13:14.237Z,30
2016-09-09T05:14:14.247Z,30
2016-09-09T05:15:14.628Z,35
2016-09-09T05:16:14.215Z,35
2016-09-09T05:17:14.241Z,35
2016-09-09T05:18:14.213Z,35
2016-09-09T05:19:14.228Z,40
2016-09-09T05:20:14.210Z,40
2016-09-09T05:21:14.101Z,45
2016-09-09T05:22:14.089Z,45
2016-09-09T05:23:14.082Z,50
2016-09-09T05:24:14.077Z,50
2016-09-09T05:25:14.076Z,55
2016-09-09T05:26:14.075Z,55
2016-09-09T05:27:14.063Z,60
2016-09-09T05:28:14.084Z,65
2016-09-09T05:29:14.065Z,65
2016-09-09T05:30:14.065Z,65
2016-09-09T05:31:14.056Z,65
2016-09-09T05:32:14.047Z,65
2016-09-09T05:33:14.077Z,65
2016-09-09T05:34:14.045Z,70
2016-09-09T05:35:14.030Z,70
2016-09-09T05:36:14.022Z,70
2016-09-09T05:37:14.450Z,65
2016-09-09T05:38:14.021Z,65
2016-09-09T05:39:14.017Z,70
2016-09-09T05:40:14.027Z,70
2016-09-09T05:41:14.009Z,70
2016-09-09T05:42:14.006Z,75
2016-09-09T05:43:14.002Z,75
2016-09-09T05:44:13.998Z,75
2016-09-09T05:45:14.002Z,75
2016-09-09T05:46:14.002Z,75
2016-09-09T05:47:13.990Z,70
2016-09-09T05:48:14.020Z,70
2016-09-09T05:49:13.971Z,70
2016-09-09T05:50:13.977Z,70
2016-09-09T05:51:13.980Z,75
2016-09-09T05:52:13.958Z,75
2016-09-09T05:53:13.967Z,75
2016-09-09T05:54:13.955Z,80
2016-09-09T05:55:14.006Z,80
2016-09-09T05:56:13.954Z,80
2016-09-09T05:57:13.943Z,80
2016-09-09T05:58:13.947Z,85
2016-09-09T05:59:13.946Z,90
2016-09-09T06:00:13.938Z,90
2016-09-09T06:01:13.943Z,95
2016-09-09T06:02:13.937Z,100
2016-09-09T06:03:13.938Z,100
2016-09-09T06:04:13.932Z,100
2016-09-09T06:05:13.920Z,100
2016-09-09T06:06:13.931Z,110
2016-09-09T06:07:13.911Z,105
2016-09-09T06:08:13.921Z,105
2016-09-09T06:09:13.914Z,110
2016-09-09T06:10:13.908Z,110
2016-09-09T06:11:13.893Z,110
2016-09-09T06:12:13.888Z,115
2016-09-09T06:13:13.900Z,120
2016-09-09T06:14:13.884Z,125
2016-09-09T06:15:13.883Z,130
2016-09-09T06:16:14.392Z,130
2016-09-09T06:17:13.882Z,130
2016-09-09T06:18:13.887Z,125
2016-09-09T06:19:13.884Z,125
2016-09-09T06:20:13.869Z,130
2016-09-09T06:21:13.859Z,130
2016-09-09T06:22:13.870Z,130
2016-09-09T06:23:13.853Z,135
2016-09-09T06:24:13.858Z,135
2016-09-09T06:25:14.387Z,140
2016-09-09T06:26:14.233Z,140
2016-09-09T06:27:13.848Z,140
2016-09-09T06:28:13.852Z,140
2016-09-09T06:29:13.837Z,140
2016-09-09T06:30:13.836Z,145
2016-09-09T06:31:13.827Z,145
2016-09-09T06:32:14.346Z,150
2016-09-09T06:33:13.833Z,150
2016-09-09T06:34:13.830Z,155
2016-09-09T06:35:13.838Z,155
2016-09-09T06:36:13.836Z,160
2016-09-09T06:37:13.813Z,165
2016-09-09T06:38:13.821Z,170
2016-09-09T06:39:13.822Z,170
2016-09-09T06:40:13.824Z,170
2016-09-09T06:41:13.811Z,170
2016-09-09T06:42:13.809Z,170
2016-09-09T06:43:14.306Z,175
2016-09-09T06:44:13.796Z,180
2016-09-09T06:45:13.806Z,180
2016-09-09T06:46:13.810Z,175
2016-09-09T06:47:13.790Z,170
2016-09-09T06:48:13.794Z,170
2016-09-09T06:49:13.789Z,170
2016-09-09T06:50:13.800Z,170
2016-09-09T06:51:14.329Z,175
2016-09-09T06:52:13.786Z,175
2016-09-09T06:53:13.789Z,180
2016-09-09T06:54:13.797Z,180
2016-09-09T06:55:13.772Z,175
2016-09-09T06:56:13.779Z,170
2016-09-09T06:57:13.787Z,165
2016-09-09T06:58:13.797Z,165
2016-09-09T06:59:13.778Z,170
2016-09-09T07:00:13.770Z,180
2016-09-09T07:01:13.777Z,180
2016-09-09T07:02:13.775Z,185
2016-09-09T07:03:13.765Z,180
2016-09-09T07:04:13.750Z,180
2016-09-09T07:05:13.770Z,185
2016-09-09T07:06:13.755Z,190
2016-09-09T07:07:13.816Z,195
2016-09-09T07:08:13.752Z,200
2016-09-09T07:09:13.764Z,200
2016-09-09T07:10:13.761Z,200
2016-09-09T07:11:13.753Z,200
2016-09-09T07:12:13.750Z,200
2016-09-09T07:13:13.764Z,200
2016-09-09T07:14:13.746Z,200
2016-09-09T07:15:13.757Z,200
2016-09-09T07:16:13.737Z,200
2016-09-09T07:17:13.748Z,200
2016-09-09T07:18:13.738Z,205
2016-09-09T07:19:13.749Z,210
2016-09-09T07:20:13.736Z,210
2016-09-09T07:21:14.185Z,215
2016-09-09T07:22:13.734Z,215
2016-09-09T07:23:13.739Z,215
2016-09-09T07:24:13.732Z,215
2016-09-09T07:25:13.734Z,215
2016-09-09T07:26:13.743Z,220
2016-09-09T07:27:13.744Z,220
2016-09-09T07:28:13.761Z,220
2016-09-09T07:29:13.749Z,220
2016-09-09T07:30:13.737Z,220
2016-09-09T07:31:13.747Z,220
2016-09-09T07:32:13.734Z,220
2016-09-09T07:33:13.737Z,220
2016-09-09T07:34:13.732Z,220
2016-09-09T07:35:13.742Z,220
2016-09-09T07:36:13.722Z,225
2016-09-09T07:37:13.721Z,230
2016-09-09T07:38:13.723Z,230
2016-09-09T07:39:13.730Z,235
2016-09-09T07:40:13.725Z,235
2016-09-09T07:41:14.124Z,240
2016-09-09T07:42:13.713Z,240
2016-09-09T07:43:14.135Z,240
2016-09-09T07:44:13.727Z,240
2016-09-09T07:45:14.132Z,240
2016-09-09T07:46:13.729Z,245
2016-09-09T07:47:13.717Z,250
2016-09-09T07:48:13.722Z,260
2016-09-09T07:49:13.707Z,265
2016-09-09T07:50:13.719Z,265
2016-09-09T07:51:13.708Z,265
2016-09-09T07:52:13.713Z,265
2016-09-09T07:53:13.706Z,265
2016-09-09T07:54:13.705Z,270
2016-09-09T07:55:13.699Z,275
2016-09-09T07:56:13.710Z,280
2016-09-09T07:57:13.720Z,285
2016-09-09T07:58:13.699Z,285
2016-09-09T07:59:13.713Z,285
2016-09-09T08:00:13.729Z,285
2016-09-09T08:01:13.700Z,285
2016-09-09T08:02:13.701Z,285
2016-09-09T08:03:14.288Z,290
2016-09-09T08:04:13.703Z,295
2016-09-09T08:05:13.705Z,300
2016-09-09T08:06:13.915Z,305
2016-09-09T08:07:13.713Z,305
2016-09-09T08:08:13.713Z,305
2016-09-09T08:09:13.696Z,310
2016-09-09T08:10:13.711Z,310
2016-09-09T08:11:13.715Z,310
2016-09-09T08:12:13.710Z,310
2016-09-09T08:13:13.742Z,310
2016-09-09T08:14:13.707Z,310
2016-09-09T08:15:13.696Z,310
2016-09-09T08:16:13.713Z,315
2016-09-09T08:17:13.763Z,315
2016-09-09T08:18:13.715Z,315
2016-09-09T08:19:13.706Z,315
2016-09-09T08:20:13.702Z,315
2016-09-09T08:21:13.703Z,315
2016-09-09T08:22:13.694Z,320
2016-09-09T08:23:13.702Z,330
2016-09-09T08:24:13.698Z,340
2016-09-09T08:25:13.707Z,345
2016-09-09T08:26:13.723Z,345
2016-09-09T08:27:13.697Z,345
2016-09-09T08:28:13.712Z,345
2016-09-09T08:29:13.701Z,350
2016-09-09T08:30:13.723Z,350
2016-09-09T08:31:13.703Z,345
2016-09-09T08:32:13.703Z,345
2016-09-09T08:33:13.702Z,335
2016-09-09T08:34:13.691Z,330
2016-09-09T08:35:14.088Z,325
2016-09-09T08:36:14.088Z,320
2016-09-09T08:37:13.697Z,320
2016-09-09T08:38:13.699Z,320
2016-09-09T08:39:13.727Z,320
2016-09-09T08:40:13.715Z,320
2016-09-09T08:41:13.717Z,320
2016-09-09T08:42:14.441Z,315
2016-09-09T08:43:14.272Z,305
2016-09-09T08:44:14.085Z,305
2016-09-09T08:45:14.451Z,305
2016-09-09T08:46:14.079Z,305
2016-09-09T08:47:13.767Z,305
2016-09-09T08:48:14.306Z,310
2016-09-09T08:49:13.741Z,310
2016-09-09T08:50:13.718Z,315
2016-09-09T08:51:13.703Z,315
2016-09-09T08:52:13.715Z,305
2016-09-09T08:53:13.707Z,305
2016-09-09T08:54:13.719Z,310
2016-09-09T08:55:13.712Z,315
2016-09-09T08:56:13.709Z,310
2016-09-09T08:57:13.720Z,310
2016-09-09T08:58:13.705Z,310
2016-09-09T08:59:13.719Z,310
2016-09-09T09:00:13.716Z,310
2016-09-09T09:01:13.715Z,315
2016-09-09T09:02:13.703Z,320
2016-09-09T09:03:13.711Z,325
2016-09-09T09:04:13.721Z,340
2016-09-09T09:05:13.715Z,340
2016-09-09T09:06:13.721Z,335
2016-09-09T09:07:13.722Z,335
2016-09-09T09:08:13.714Z,335
2016-09-09T09:09:13.730Z,330
2016-09-09T09:10:13.711Z,325
2016-09-09T09:11:13.718Z,325
2016-09-09T09:12:13.727Z,325
2016-09-09T09:13:13.731Z,330
2016-09-09T09:14:13.721Z,330
2016-09-09T09:15:13.724Z,325
2016-09-09T09:16:14.206Z,320
2016-09-09T09:17:13.785Z,310
2016-09-09T09:18:14.031Z,300
2016-09-09T09:19:13.747Z,295
2016-09-09T09:20:13.727Z,295
2016-09-09T09:21:13.767Z,295
2016-09-09T09:22:13.725Z,300
2016-09-09T09:23:14.506Z,300
2016-09-09T09:24:13.768Z,295
2016-09-09T09:25:13.733Z,290
2016-09-09T09:26:13.723Z,285
2016-09-09T09:27:13.749Z,275
2016-09-09T09:28:13.730Z,280
2016-09-09T09:29:13.736Z,280
2016-09-09T09:30:13.734Z,285
2016-09-09T09:31:13.738Z,290
2016-09-09T09:32:13.739Z,295
2016-09-09T09:33:13.974Z,290
2016-09-09T09:34:13.748Z,280
2016-09-09T09:35:13.740Z,275
2016-09-09T09:36:13.747Z,260
2016-09-09T09:37:13.747Z,250
2016-09-09T09:38:13.738Z,250
2016-09-09T09:39:13.764Z,255
2016-09-09T09:40:14.011Z,260
2016-09-09T09:41:13.769Z,265
2016-09-09T09:42:13.782Z,270
2016-09-09T09:43:13.748Z,260
2016-09-09T09:44:13.746Z,260
2016-09-09T09:45:13.746Z,255
2016-09-09T09:46:13.760Z,255
2016-09-09T09:47:13.758Z,255
2016-09-09T09:48:13.752Z,260
2016-09-09T09:49:13.756Z,265
2016-09-09T09:50:13.756Z,270
2016-09-09T09:51:13.773Z,275
2016-09-09T09:52:13.763Z,270
2016-09-09T09:53:13.750Z,260
2016-09-09T09:54:13.760Z,250
2016-09-09T09:55:13.809Z,240
2016-09-09T09:56:13.771Z,235
2016-09-09T09:57:14.196Z,235
2016-09-09T09:58:13.781Z,235
2016-09-09T09:59:13.750Z,230
2016-09-09T10:00:13.779Z,230
2016-09-09T10:01:14.223Z,225
2016-09-09T10:02:13.776Z,225
2016-09-09T10:03:14.230Z,230
2016-09-09T10:04:13.771Z,225
2016-09-09T10:05:13.765Z,230
2016-09-09T10:06:13.770Z,235
2016-09-09T10:07:13.764Z,235
2016-09-09T10:08:13.776Z,230
2016-09-09T10:09:13.774Z,225
2016-09-09T10:10:13.780Z,225
2016-09-09T10:11:13.772Z,225
2016-09-09T10:12:13.785Z,220
2016-09-09T10:13:13.781Z,215
2016-09-09T10:14:13.792Z,215
2016-09-09T10:15:13.807Z,205
2016-09-09T10:16:14.230Z,205
2016-09-09T10:17:13.782Z,210
2016-09-09T10:18:13.786Z,220
2016-09-09T10:19:13.786Z,225
2016-09-09T10:20:13.802Z,230
2016-09-09T10:21:13.787Z,235
2016-09-09T10:22:13.789Z,230
2016-09-09T10:23:13.792Z,225
2016-09-09T10:24:13.800Z,220
2016-09-09T10:25:13.800Z,220
2016-09-09T10:26:13.786Z,215
2016-09-09T10:27:13.807Z,215
2016-09-09T10:28:13.794Z,220
2016-09-09T10:29:13.797Z,220
2016-09-09T10:30:13.813Z,215
2016-09-09T10:31:14.276Z,215
2016-09-09T10:32:13.929Z,210
2016-09-09T10:33:13.792Z,210
2016-09-09T10:34:13.804Z,205
2016-09-09T10:35:13.804Z,200
2016-09-09T10:36:13.802Z,200
2016-09-09T10:37:13.804Z,200
2016-09-09T10:38:13.798Z,195
2016-09-09T10:39:13.812Z,195
2016-09-09T10:40:13.804Z,190
2016-09-09T10:41:13.800Z,190
2016-09-09T10:42:13.922Z,190
2016-09-09T10:43:13.807Z,190
2016-09-09T10:44:13.807Z,190
2016-09-09T10:45:13.816Z,190
2016-09-09T10:46:13.812Z,190
2016-09-09T10:47:14.297Z,185
2016-09-09T10:48:13.921Z,185
2016-09-09T10:49:13.944Z,180
2016-09-09T10:50:13.921Z,180
2016-09-09T10:51:13.926Z,185
2016-09-09T10:52:13.919Z,185
2016-09-09T10:53:13.918Z,185
2016-09-09T10:54:13.916Z,180
2016-09-09T10:55:14.080Z,180
2016-09-09T10:56:13.915Z,180
2016-09-09T10:57:14.264Z,185
2016-09-09T10:58:13.923Z,185
2016-09-09T10:59:14.272Z,185
2016-09-09T11:00:13.937Z,180
2016-09-09T11:01:13.942Z,180
2016-09-09T11:02:13.944Z,180
2016-09-09T11:03:13.952Z,175
2016-09-09T11:04:13.948Z,180
2016-09-09T11:05:13.928Z,180
2016-09-09T11:06:13.937Z,180
2016-09-09T11:07:13.946Z,175
2016-09-09T11:08:13.944Z,175
2016-09-09T11:09:13.943Z,170
2016-09-09T11:10:13.924Z,170
2016-09-09T11:11:13.964Z,175
2016-09-09T11:12:13.930Z,175
2016-09-09T11:13:13.940Z,170
2016-09-09T11:14:13.950Z,175
2016-09-09T11:15:13.930Z,185
2016-09-09T11:16:13.946Z,180
2016-09-09T11:17:13.936Z,180
2016-09-09T11:18:13.935Z,180
2016-09-09T11:19:13.935Z,185
2016-09-09T11:20:13.924Z,200
2016-09-09T11:21:13.932Z,195
2016-09-09T11:22:14.243Z,195
2016-09-09T11:23:13.930Z,205
2016-09-09T11:25:13.941Z,210
2016-09-09T11:26:13.939Z,200
2016-09-09T11:27:15.784Z,185
2016-09-09T11:28:13.928Z,190
2016-09-09T11:29:13.929Z,190
2016-09-09T11:30:13.925Z,185
2016-09-09T11:31:13.935Z,185
2016-09-09T11:32:14.073Z,180
2016-09-09T11:33:14.083Z,180
2016-09-09T11:34:14.079Z,195
2016-09-09T11:35:14.092Z,205
2016-09-09T11:36:14.111Z,210
2016-09-09T11:37:14.250Z,220
2016-09-09T11:38:13.947Z,225
2016-09-09T11:39:13.943Z,220
2016-09-09T11:40:14.078Z,205
2016-09-09T11:41:13.956Z,190
2016-09-09T11:42:13.957Z,190
2016-09-09T11:43:14.094Z,190
2016-09-09T11:44:13.946Z,205
2016-09-09T11:45:14.064Z,230
2016-09-09T11:46:14.084Z,235
2016-09-09T11:47:14.080Z,235
2016-09-09T11:48:14.098Z,255
2016-09-09T11:49:14.089Z,280
2016-09-09T11:50:14.098Z,295
2016-09-09T11:51:14.112Z,305
2016-09-09T11:52:13.954Z,300
2016-09-09T11:53:14.125Z,290
2016-09-09T11:54:14.124Z,265
2016-09-09T11:55:14.273Z,235
2016-09-09T11:56:13.961Z,235
2016-09-09T11:57:14.052Z,240
2016-09-09T11:58:14.056Z,265
2016-09-09T11:59:14.263Z,275
2016-09-09T12:00:14.270Z,275
2016-09-09T12:01:14.278Z,260
2016-09-09T12:02:14.088Z,240
2016-09-09T12:03:14.096Z,240
2016-09-09T12:04:14.096Z,265
2016-09-09T12:05:14.105Z,300
2016-09-09T12:06:14.112Z,345
2016-09-09T12:07:14.409Z,350
2016-09-09T12:08:14.131Z,325
2016-09-09T12:09:14.132Z,320
2016-09-09T12:10:14.040Z,330
2016-09-09T12:11:14.052Z,340
2016-09-09T12:12:14.064Z,335
2016-09-09T12:13:14.058Z,340
2016-09-09T12:14:14.067Z,340
2016-09-09T12:15:14.076Z,330
2016-09-09T12:16:14.087Z,315
2016-09-09T12:17:14.035Z,300
2016-09-09T12:18:14.104Z,290
2016-09-09T12:19:14.031Z,275
2016-09-09T12:20:14.111Z,240
2016-09-09T12:21:14.122Z,225
2016-09-09T12:22:14.303Z,225
2016-09-09T12:23:14.027Z,230
2016-09-09T12:24:14.040Z,240
2016-09-09T12:25:14.048Z,245
2016-09-09T12:26:14.195Z,240
2016-09-09T12:27:14.067Z,240
2016-09-09T12:28:14.074Z,250
2016-09-09T12:29:14.280Z,255
2016-09-09T12:30:14.082Z,260
2016-09-09T12:31:14.094Z,255
2016-09-09T12:32:14.215Z,250
2016-09-09T12:33:14.110Z,235
2016-09-09T12:34:14.310Z,230
2016-09-09T12:35:14.164Z,225
2016-09-09T12:36:14.169Z,215
2016-09-09T12:37:14.181Z,210
2016-09-09T12:38:14.174Z,210
2016-09-09T12:39:14.185Z,215
2016-09-09T12:40:14.323Z,220
2016-09-09T12:41:14.206Z,225
2016-09-09T12:42:14.072Z,220
2016-09-09T12:43:14.084Z,215
2016-09-09T12:44:14.193Z,210
2016-09-09T12:45:14.095Z,210
2016-09-09T12:46:14.097Z,215
2016-09-09T12:47:14.148Z,235
2016-09-09T12:48:14.146Z,245
2016-09-09T12:49:14.160Z,260
2016-09-09T12:50:14.169Z,285
2016-09-09T12:51:14.181Z,325
2016-09-09T12:52:14.183Z,370
2016-09-09T12:53:14.184Z,365
2016-09-09T12:54:14.199Z,375
2016-09-09T12:55:14.231Z,390
2016-09-09T12:56:14.212Z,385
2016-09-09T12:57:14.081Z,360
2016-09-09T12:58:14.092Z,325
2016-09-09T12:59:14.231Z,295
2016-09-09T13:00:14.137Z,255
2016-09-09T13:01:14.152Z,225
2016-09-09T13:02:14.154Z,210
2016-09-09T13:03:14.156Z,205
2016-09-09T13:04:14.167Z,200
2016-09-09T13:05:14.178Z,200
2016-09-09T13:06:14.355Z,205
2016-09-09T13:07:14.190Z,205
2016-09-09T13:08:14.200Z,210
2016-09-09T13:09:14.200Z,210
2016-09-09T13:10:14.206Z,215
2016-09-09T13:11:14.218Z,225
2016-09-09T13:12:14.129Z,235
2016-09-09T13:13:14.126Z,245
2016-09-09T13:14:14.140Z,255
2016-09-09T13:15:14.378Z,245
2016-09-09T13:16:14.152Z,235
2016-09-09T13:17:14.167Z,235
2016-09-09T13:18:14.160Z,235
2016-09-09T13:19:14.177Z,240
2016-09-09T13:20:14.178Z,250
2016-09-09T13:21:14.189Z,255
2016-09-09T13:22:14.198Z,265
2016-09-09T13:23:14.208Z,265
2016-09-09T13:24:14.205Z,235
2016-09-09T13:25:14.178Z,215
2016-09-09T13:26:14.184Z,210
2016-09-09T13:27:14.132Z,205
2016-09-09T13:28:14.131Z,200
2016-09-09T13:29:14.141Z,200
2016-09-09T13:30:14.156Z,205
2016-09-09T13:31:14.591Z,200
2016-09-09T13:32:14.171Z,195
2016-09-09T13:33:14.167Z,200
2016-09-09T13:34:14.176Z,210
2016-09-09T13:35:14.189Z,215
2016-09-09T13:36:14.198Z,220
2016-09-09T13:37:14.164Z,220
2016-09-09T13:38:14.164Z,225
2016-09-09T13:39:14.308Z,235
2016-09-09T13:40:14.181Z,250
2016-09-09T13:41:14.191Z,270
2016-09-09T13:42:14.201Z,300
2016-09-09T13:43:14.200Z,325
2016-09-09T13:44:14.209Z,340
2016-09-09T13:45:14.219Z,330
2016-09-09T13:46:14.229Z,305
2016-09-09T13:47:14.173Z,275
2016-09-09T13:48:14.201Z,255
2016-09-09T13:49:14.188Z,240
2016-09-09T13:50:14.153Z,225
2016-09-09T13:51:14.470Z,210
2016-09-09T13:52:14.170Z,200
2016-09-09T13:53:14.456Z,195
2016-09-09T13:54:14.180Z,205
2016-09-09T13:55:14.191Z,210
2016-09-09T13:56:14.177Z,215
2016-09-09T13:57:14.206Z,205
2016-09-09T13:58:14.209Z,195
2016-09-09T13:59:14.215Z,195
2016-09-09T14:00:14.177Z,195
2016-09-09T14:01:14.233Z,185
2016-09-09T14:02:14.241Z,175
2016-09-09T14:03:14.174Z,175
2016-09-09T14:04:14.164Z,175
2016-09-09T14:05:14.181Z,180
2016-09-09T14:06:14.186Z,185
2016-09-09T14:07:14.179Z,190
2016-09-09T14:08:14.184Z,190
2016-09-09T14:09:14.737Z,195
2016-09-09T14:10:14.500Z,195